Time;durP1;ratioP1;P1;durP2;ratioP2;P2;SDS_P1;SDS_P2;PMS_P1;PMS_P2;Temp;Humidity;BMP_temperature;BMP_pressure;BME280_temperature;BME280_humidity;BME280_pressure;Samples;Min_cycle;Max_cycle;Signal;HPM_P1;HPM_P2
2022/06/30 00:00:47;;;;;;;9.27;8.27;;;19.70;99.90;;;;;;5037937;28;20455;-83
2022/06/30 00:03:14;;;;;;;9.60;8.70;;;19.70;99.90;;;;;;5054821;28;20472;-82
2022/06/30 00:05:41;;;;;;;8.43;7.73;;;19.70;99.90;;;;;;5057817;28;20446;-82
2022/06/30 00:08:08;;;;;;;7.60;7.00;;;19.70;99.90;;;;;;5042595;28;20536;-82
2022/06/30 00:10:36;;;;;;;7.60;6.40;;;19.60;99.90;;;;;;5037325;28;20831;-82
2022/06/30 00:13:03;;;;;;;6.27;5.77;;;19.60;99.90;;;;;;5051401;28;20482;-82
2022/06/30 00:15:30;;;;;;;6.97;6.57;;;19.60;99.90;;;;;;5058018;28;20459;-82
2022/06/30 00:17:56;;;;;;;6.63;6.17;;;19.60;99.90;;;;;;5039162;28;20453;-82
2022/06/30 00:20:23;;;;;;;6.97;6.27;;;19.60;99.90;;;;;;5037202;28;20452;-83
2022/06/30 00:22:50;;;;;;;7.27;6.67;;;19.50;99.90;;;;;;5053826;28;20831;-82
2022/06/30 00:25:18;;;;;;;6.73;5.83;;;19.50;99.90;;;;;;5057445;28;20452;-82
2022/06/30 00:27:46;;;;;;;7.33;6.83;;;19.50;99.90;;;;;;5041412;28;20460;-82
2022/06/30 00:30:13;;;;;;;8.73;8.10;;;19.40;99.90;;;;;;5037224;28;20444;-83
2022/06/30 00:32:40;;;;;;;7.63;6.57;;;19.40;99.90;;;;;;5051344;28;20458;-83
2022/06/30 00:35:07;;;;;;;8.07;7.37;;;19.40;99.90;;;;;;5056850;28;20844;-82
2022/06/30 00:37:34;;;;;;;10.07;8.00;;;19.30;99.90;;;;;;5044035;28;20455;-82
2022/06/30 00:40:00;;;;;;;8.03;7.10;;;19.30;99.90;;;;;;5036736;28;20449;-82
2022/06/30 00:42:27;;;;;;;7.87;7.33;;;19.30;99.90;;;;;;5048532;28;20506;-82
2022/06/30 00:44:55;;;;;;;6.80;6.20;;;19.20;99.90;;;;;;5056992;28;20475;-82
2022/06/30 00:47:22;;;;;;;8.50;7.83;;;19.10;99.90;;;;;;5046426;28;20465;-82
2022/06/30 00:49:48;;;;;;;7.40;6.80;;;19.20;99.90;;;;;;5037051;28;20459;-82
2022/06/30 00:52:17;;;;;;;7.30;6.70;;;19.20;99.90;;;;;;5044516;28;20455;-82
2022/06/30 00:54:45;;;;;;;6.67;6.20;;;19.10;99.90;;;;;;5056667;28;20467;-82
2022/06/30 00:57:13;;;;;;;7.53;7.03;;;19.10;99.90;;;;;;5048721;28;20457;-82
2022/06/30 00:59:45;;;;;;;7.37;6.67;;;19.10;99.90;;;;;;5037203;28;20445;-82
2022/06/30 01:02:14;;;;;;;7.40;6.80;;;19.10;99.90;;;;;;5043472;28;20479;-82
2022/06/30 01:04:42;;;;;;;7.90;7.30;;;19.10;99.90;;;;;;5055444;28;20479;-82
2022/06/30 01:07:10;;;;;;;7.33;6.73;;;19.00;99.90;;;;;;5044559;28;20449;-82
2022/06/30 01:15:06;;;;;;;8.27;7.57;;;18.90;99.90;;;;;;5056549;28;20426;-82
2022/06/30 01:17:34;;;;;;;7.83;7.23;;;18.90;99.90;;;;;;5041546;28;20832;-82
2022/06/30 01:20:01;;;;;;;8.23;7.57;;;18.90;99.90;;;;;;5036520;28;20467;-83
2022/06/30 01:22:29;;;;;;;8.33;7.83;;;18.70;99.90;;;;;;5052775;28;20487;-82
2022/06/30 01:24:56;;;;;;;8.53;7.83;;;18.60;99.90;;;;;;5055887;28;20566;-83
2022/06/30 01:27:23;;;;;;;9.10;8.40;;;18.70;99.90;;;;;;5054670;28;20455;-82
2022/06/30 01:29:50;;;;;;;8.70;8.00;;;18.70;99.90;;;;;;5055907;28;20494;-82
2022/06/30 01:32:17;;;;;;;8.77;8.07;;;18.70;99.90;;;;;;5041025;28;20518;-83
2022/06/30 01:34:44;;;;;;;8.70;8.10;;;18.70;99.90;;;;;;5083732;22;20502;-86
2022/06/30 01:37:11;;;;;;;9.23;8.40;;;18.60;99.90;;;;;;5065647;28;20471;-86
2022/06/30 01:39:39;;;;;;;9.80;9.10;;;18.50;99.90;;;;;;5060112;28;20536;-86
2022/06/30 01:42:06;;;;;;;8.00;7.33;;;18.50;99.90;;;;;;5071315;28;20492;-86
2022/06/30 01:44:33;;;;;;;8.83;8.17;;;18.40;99.90;;;;;;5066101;28;20474;-86
2022/06/30 01:47:00;;;;;;;9.50;8.47;;;18.40;99.90;;;;;;5060002;28;20452;-87
2022/06/30 01:49:27;;;;;;;8.50;7.80;;;18.40;99.90;;;;;;5060225;28;20459;-86
2022/06/30 01:51:54;;;;;;;9.50;8.57;;;18.40;99.90;;;;;;5059426;28;20486;-86
2022/06/30 01:54:21;;;;;;;10.13;8.23;;;18.40;99.90;;;;;;5059410;28;20466;-86
2022/06/30 01:56:49;;;;;;;8.83;8.23;;;18.40;99.90;;;;;;5050036;28;20869;-86
2022/06/30 01:59:16;;;;;;;8.40;7.70;;;18.40;99.90;;;;;;5040275;28;20836;-86
2022/06/30 02:01:43;;;;;;;9.20;8.53;;;18.30;99.90;;;;;;5048633;28;20483;-86
2022/06/30 02:06:54;;;;;;;10.80;9.70;;;18.30;99.90;;;;;;5040199;28;20447;-86
2022/06/30 02:09:21;;;;;;;10.97;10.07;;;18.30;99.90;;;;;;5040079;28;20450;-86
2022/06/30 02:12:44;;;;;;;10.63;9.80;;;18.30;99.90;;;;;;5047580;28;20464;-86
2022/06/30 02:14:36;;;;;;;9.70;8.80;;;18.30;99.90;;;;;;5059686;28;20486;-86
2022/06/30 02:17:03;;;;;;;9.73;9.00;;;18.20;99.90;;;;;;5049687;28;20868;-87
2022/06/30 02:19:30;;;;;;;10.03;9.33;;;18.20;99.90;;;;;;5039755;28;20478;-86
2022/06/30 02:21:56;;;;;;;9.50;8.80;;;18.20;99.90;;;;;;5047394;28;20505;-86
2022/06/30 02:24:24;;;;;;;8.43;7.83;;;18.20;99.90;;;;;;5059173;28;20989;-86
2022/06/30 02:26:52;;;;;;;8.93;8.23;;;18.20;99.90;;;;;;5052517;28;20452;-85
2022/06/30 02:29:18;;;;;;;10.17;8.90;;;18.20;99.90;;;;;;5039238;28;20452;-85
2022/06/30 02:31:45;;;;;;;8.97;8.03;;;18.20;99.90;;;;;;5044573;28;20522;-86
2022/06/30 02:34:12;;;;;;;9.43;8.73;;;18.20;99.90;;;;;;5058813;28;20489;-86
2022/06/30 02:36:39;;;;;;;10.10;9.23;;;18.10;99.90;;;;;;5054322;28;20453;-86
2022/06/30 02:39:06;;;;;;;9.60;8.80;;;18.10;99.90;;;;;;5039374;28;20491;-86
2022/06/30 02:41:32;;;;;;;8.97;8.27;;;18.10;99.90;;;;;;5040943;28;20451;-86
2022/06/30 02:44:02;;;;;;;10.80;9.80;;;18.10;99.90;;;;;;5059067;28;20467;-87
2022/06/30 02:46:28;;;;;;;9.80;8.90;;;18.10;99.90;;;;;;5050812;28;20444;-86
2022/06/30 02:48:55;;;;;;;9.60;8.80;;;18.10;99.90;;;;;;5038932;28;20531;-86
2022/06/30 02:51:22;;;;;;;9.87;8.97;;;18.00;99.90;;;;;;5044997;28;20454;-86
2022/06/30 02:53:49;;;;;;;9.30;8.60;;;18.00;99.90;;;;;;5058493;28;20664;-86
2022/06/30 02:56:15;;;;;;;9.53;8.80;;;18.00;99.90;;;;;;5059050;28;20454;-85
2022/06/30 02:58:43;;;;;;;10.10;9.40;;;18.00;99.90;;;;;;5058580;28;20464;-85
2022/06/30 03:01:11;;;;;;;9.00;8.40;;;18.00;99.90;;;;;;5064081;28;20433;-84
2022/06/30 03:03:37;;;;;;;10.30;9.60;;;18.00;99.90;;;;;;5056833;28;20514;-84
2022/06/30 03:06:04;;;;;;;8.40;7.80;;;18.00;99.90;;;;;;5048481;28;20457;-85
2022/06/30 03:08:31;;;;;;;9.80;8.90;;;18.00;99.90;;;;;;5060024;28;20451;-86
2022/06/30 03:10:58;;;;;;;10.87;9.97;;;18.00;99.90;;;;;;5057527;28;20455;-86
2022/06/30 03:13:25;;;;;;;10.20;9.40;;;17.90;99.90;;;;;;5038982;28;20501;-85
2022/06/30 03:15:52;;;;;;;9.43;8.50;;;17.90;99.90;;;;;;5041199;28;20456;-85
2022/06/30 03:18:21;;;;;;;9.27;8.50;;;17.90;99.90;;;;;;5063324;28;20459;-85
2022/06/30 03:20:47;;;;;;;10.03;9.23;;;17.90;99.90;;;;;;5063200;28;20453;-85
2022/06/30 03:23:14;;;;;;;10.00;9.20;;;17.80;99.90;;;;;;5063030;28;20486;-85
2022/06/30 03:25:41;;;;;;;10.03;9.20;;;17.80;99.90;;;;;;5063466;28;20463;-85
2022/06/30 03:28:08;;;;;;;9.43;8.73;;;17.80;99.90;;;;;;5062365;28;20451;-85
2022/06/30 03:30:34;;;;;;;10.80;9.70;;;17.80;99.90;;;;;;5062946;28;20455;-85
2022/06/30 03:33:01;;;;;;;11.47;9.60;;;17.80;99.90;;;;;;5062433;28;20458;-85
2022/06/30 03:35:30;;;;;;;9.33;8.70;;;17.80;99.90;;;;;;5063375;28;20448;-85
2022/06/30 03:37:57;;;;;;;9.47;8.73;;;17.80;99.90;;;;;;5043616;28;20455;-85
2022/06/30 03:40:24;;;;;;;10.73;9.80;;;17.70;99.90;;;;;;5042561;28;20490;-85
2022/06/30 03:42:51;;;;;;;9.47;8.60;;;17.70;99.90;;;;;;5062512;28;20483;-85
2022/06/30 03:45:18;;;;;;;11.50;10.33;;;17.70;99.90;;;;;;5063133;28;20459;-85
2022/06/30 03:47:45;;;;;;;10.63;9.83;;;17.70;99.90;;;;;;5045287;28;20455;-85
2022/06/30 03:50:11;;;;;;;10.07;9.30;;;17.70;99.90;;;;;;5042888;28;20957;-86
2022/06/30 03:52:39;;;;;;;10.73;9.33;;;17.70;99.90;;;;;;5043155;28;20456;-85
2022/06/30 03:55:07;;;;;;;10.17;9.23;;;17.70;99.90;;;;;;5049330;28;20467;-85
2022/06/30 03:57:34;;;;;;;10.93;9.73;;;17.70;99.90;;;;;;5051733;28;20453;-85
2022/06/30 04:00:00;;;;;;;11.03;10.13;;;17.70;99.90;;;;;;5062586;28;21073;-85
2022/06/30 04:02:27;;;;;;;10.30;9.40;;;17.70;99.90;;;;;;5062722;28;21007;-85
2022/06/30 04:04:54;;;;;;;10.30;9.57;;;17.70;99.90;;;;;;5062850;28;20467;-85
2022/06/30 04:07:21;;;;;;;9.80;9.10;;;17.80;99.90;;;;;;5062907;28;20451;-85
2022/06/30 04:09:49;;;;;;;12.13;11.03;;;17.80;99.90;;;;;;5061770;28;20458;-85
2022/06/30 04:12:15;;;;;;;10.30;9.50;;;17.70;99.90;;;;;;5062855;28;20462;-85
2022/06/30 04:14:42;;;;;;;12.27;11.23;;;17.80;99.90;;;;;;5058472;28;20476;-85
2022/06/30 04:17:10;;;;;;;11.43;10.33;;;17.80;99.90;;;;;;5042704;28;20451;-85
2022/06/30 04:19:37;;;;;;;12.67;11.40;;;17.80;99.90;;;;;;5042557;28;20975;-85
2022/06/30 04:22:04;;;;;;;11.70;10.73;;;17.90;99.90;;;;;;5042623;28;20449;-85
2022/06/30 04:24:31;;;;;;;11.03;10.03;;;17.90;99.90;;;;;;5041961;28;20490;-87
2022/06/30 04:26:59;;;;;;;12.10;11.10;;;17.90;99.90;;;;;;5038962;28;20964;-86
2022/06/30 04:29:26;;;;;;;12.33;11.07;;;17.90;99.90;;;;;;5039339;28;20460;-86
2022/06/30 04:34:37;;;;;;;11.00;10.10;;;18.00;99.90;;;;;;5039040;28;20467;-87
2022/06/30 04:37:04;;;;;;;11.30;10.30;;;18.00;99.90;;;;;;5060275;28;20817;-85
2022/06/30 04:39:31;;;;;;;11.00;10.07;;;18.00;99.90;;;;;;5060939;28;20444;-85
2022/06/30 04:41:58;;;;;;;11.03;10.17;;;18.10;99.90;;;;;;5059659;28;20934;-85
2022/06/30 04:44:25;;;;;;;11.27;10.33;;;18.10;99.90;;;;;;5060371;28;20475;-85
2022/06/30 04:46:52;;;;;;;11.37;10.50;;;18.20;99.90;;;;;;5060164;28;20456;-85
2022/06/30 04:49:18;;;;;;;11.37;10.47;;;18.20;99.90;;;;;;5060192;28;20456;-85
2022/06/30 04:51:45;;;;;;;10.43;9.63;;;18.20;99.90;;;;;;5040207;28;20458;-85
2022/06/30 04:54:12;;;;;;;12.67;11.77;;;18.30;99.90;;;;;;5040036;28;20480;-85
2022/06/30 04:56:39;;;;;;;12.37;11.30;;;18.30;99.90;;;;;;5042371;28;20455;-85
2022/06/30 04:59:07;;;;;;;13.67;12.57;;;18.30;99.90;;;;;;5060638;28;20451;-85
2022/06/30 05:01:34;;;;;;;11.40;10.40;;;18.40;99.90;;;;;;5061848;28;20455;-86
2022/06/30 05:04:00;;;;;;;11.07;10.00;;;18.50;99.90;;;;;;5062176;28;20909;-85
2022/06/30 05:06:27;;;;;;;11.97;11.07;;;18.50;99.90;;;;;;5062591;28;20832;-85
2022/06/30 05:08:54;;;;;;;11.80;10.43;;;18.50;99.90;;;;;;5062003;28;20459;-85
2022/06/30 05:11:21;;;;;;;12.23;11.20;;;18.60;99.90;;;;;;5062109;28;20459;-86
2022/06/30 05:13:47;;;;;;;10.97;10.17;;;18.60;99.90;;;;;;5059646;28;20475;-84
2022/06/30 05:16:16;;;;;;;11.90;11.00;;;18.70;99.90;;;;;;5061594;28;20451;-85
2022/06/30 05:18:42;;;;;;;13.37;12.27;;;18.70;99.90;;;;;;5059931;28;20441;-83
2022/06/30 05:21:09;;;;;;;11.27;10.13;;;18.80;99.90;;;;;;5066755;28;20431;-83
2022/06/30 05:23:36;;;;;;;10.27;9.37;;;18.80;99.90;;;;;;5061260;28;20560;-85
2022/06/30 05:28:47;;;;;;;10.30;9.60;;;19.00;99.90;;;;;;5040123;28;20452;-85
2022/06/30 05:31:15;;;;;;;11.10;10.10;;;19.10;99.90;;;;;;5040904;28;20468;-84
2022/06/30 05:33:51;;;;;;;11.87;10.87;;;19.20;99.90;;;;;;5046084;28;20479;-84
2022/06/30 05:36:20;;;;;;;10.97;10.00;;;19.30;99.90;;;;;;5059738;28;20534;-83
2022/06/30 05:38:49;;;;;;;11.30;10.50;;;19.30;99.90;;;;;;5051892;28;20540;-86
2022/06/30 05:41:16;;;;;;;10.63;9.60;;;19.40;99.90;;;;;;5041891;28;20471;-85
2022/06/30 05:43:43;;;;;;;11.10;9.97;;;19.50;99.90;;;;;;5058560;28;20491;-85
2022/06/30 05:46:10;;;;;;;10.20;9.20;;;19.60;99.90;;;;;;5059789;28;20785;-83
2022/06/30 05:48:38;;;;;;;10.63;9.53;;;19.70;99.90;;;;;;5058838;28;20448;-83
2022/06/30 05:51:05;;;;;;;10.43;9.60;;;19.80;99.90;;;;;;5062310;28;20455;-83
2022/06/30 05:53:31;;;;;;;13.93;9.37;;;19.90;99.90;;;;;;5061685;28;20469;-81
2022/06/30 05:55:58;;;;;;;10.70;9.50;;;20.00;99.90;;;;;;5062282;28;20452;-83
2022/06/30 05:58:25;;;;;;;11.07;10.07;;;20.00;99.90;;;;;;5044691;28;20551;-83
2022/06/30 06:00:52;;;;;;;12.87;11.40;;;20.10;99.90;;;;;;5056732;28;20528;-82
2022/06/30 06:03:19;;;;;;;10.43;9.53;;;20.20;99.90;;;;;;5061685;28;20493;-82
2022/06/30 06:05:47;;;;;;;9.53;8.70;;;20.30;99.90;;;;;;5059524;28;20448;-82
2022/06/30 06:08:14;;;;;;;10.10;9.10;;;20.50;99.90;;;;;;5062107;28;20457;-81
2022/06/30 06:10:41;;;;;;;11.33;10.43;;;20.50;99.90;;;;;;5051830;28;20450;-83
2022/06/30 06:13:09;;;;;;;9.00;8.40;;;20.60;99.90;;;;;;5063338;28;20457;-83
2022/06/30 06:15:36;;;;;;;9.50;8.60;;;20.60;99.90;;;;;;5044429;28;20451;-83
2022/06/30 06:18:03;;;;;;;9.47;8.77;;;20.70;99.90;;;;;;5052018;28;20962;-83
2022/06/30 06:20:30;;;;;;;9.67;8.60;;;20.80;99.90;;;;;;5053583;28;20525;-83
2022/06/30 06:22:58;;;;;;;11.80;9.30;;;20.80;99.90;;;;;;5051022;28;20989;-84
2022/06/30 06:25:25;;;;;;;9.43;8.50;;;20.90;99.90;;;;;;5050615;28;20453;-83
2022/06/30 06:30:36;;;;;;;10.67;8.80;;;21.10;99.90;;;;;;5050452;28;20419;-82
2022/06/30 06:33:02;;;;;;;9.67;8.97;;;21.20;99.90;;;;;;5049585;28;20443;-83
2022/06/30 06:35:29;;;;;;;12.10;10.17;;;21.20;99.90;;;;;;5054455;28;20950;-83
2022/06/30 06:37:57;;;;;;;14.73;10.07;;;21.30;99.90;;;;;;5052911;28;20447;-83
2022/06/30 06:40:24;;;;;;;13.40;9.77;;;21.30;99.90;;;;;;5049598;28;20447;-83
2022/06/30 06:42:51;;;;;;;13.63;10.47;;;21.40;99.90;;;;;;5053683;28;20447;-85
2022/06/30 06:45:18;;;;;;;16.30;12.37;;;21.60;99.90;;;;;;5052189;28;20466;-83
2022/06/30 06:47:45;;;;;;;11.07;10.07;;;21.60;99.90;;;;;;5066374;28;20454;-84
2022/06/30 06:50:12;;;;;;;11.30;10.40;;;21.70;99.90;;;;;;5060629;28;20450;-83
2022/06/30 06:52:38;;;;;;;10.80;9.73;;;21.70;99.90;;;;;;5044110;28;20454;-83
2022/06/30 06:55:07;;;;;;;10.80;9.73;;;21.80;99.90;;;;;;5044049;28;20467;-83
2022/06/30 06:57:35;;;;;;;11.03;9.93;;;21.90;99.90;;;;;;5062000;28;20816;-84
2022/06/30 07:00:02;;;;;;;10.13;9.13;;;22.00;99.90;;;;;;5061628;28;20825;-84
2022/06/30 07:02:35;;;;;;;10.70;9.70;;;22.10;99.90;;;;;;5059666;28;20446;-86
2022/06/30 07:05:01;;;;;;;9.87;9.17;;;22.10;99.90;;;;;;5062285;28;20866;-85
2022/06/30 07:07:28;;;;;;;10.10;9.30;;;22.30;99.90;;;;;;5062164;28;20454;-84
2022/06/30 07:09:55;;;;;;;11.17;10.17;;;22.30;99.90;;;;;;5063638;28;20457;-84
2022/06/30 07:12:23;;;;;;;11.47;10.03;;;22.40;99.90;;;;;;5046287;28;20454;-85
2022/06/30 07:14:50;;;;;;;15.30;10.47;;;22.50;99.90;;;;;;5054996;28;20840;-85
2022/06/30 07:17:16;;;;;;;14.77;10.60;;;22.60;99.90;;;;;;5043163;28;20506;-87
2022/06/30 07:19:43;;;;;;;10.63;9.53;;;22.70;99.90;;;;;;5043818;28;20461;-85
2022/06/30 07:22:10;;;;;;;10.53;9.63;;;22.80;99.90;;;;;;5044170;28;20459;-85
2022/06/30 07:24:37;;;;;;;9.10;8.30;;;22.80;99.90;;;;;;5045958;28;20496;-84
2022/06/30 07:27:04;;;;;;;12.83;10.10;;;22.90;99.90;;;;;;5045459;28;20443;-81
2022/06/30 07:29:32;;;;;;;8.90;8.20;;;22.90;99.90;;;;;;5057766;28;20447;-82
2022/06/30 07:31:59;;;;;;;9.23;8.43;;;23.00;99.90;;;;;;5056293;28;20463;-82
2022/06/30 07:34:25;;;;;;;8.73;7.67;;;23.10;99.90;;;;;;5057662;28;20471;-82
2022/06/30 07:36:52;;;;;;;10.03;9.10;;;23.10;99.90;;;;;;5061301;28;20444;-83
2022/06/30 07:39:19;;;;;;;9.07;8.27;;;23.20;99.90;;;;;;5057066;28;20453;-82
2022/06/30 07:41:48;;;;;;;8.90;7.87;;;23.30;99.90;;;;;;5054628;28;20445;-82
2022/06/30 07:44:15;;;;;;;8.60;8.00;;;23.40;99.90;;;;;;5045503;28;20531;-84
2022/06/30 07:46:43;;;;;;;9.70;8.80;;;23.40;99.90;;;;;;5043057;28;20457;-83
2022/06/30 07:49:09;;;;;;;9.90;9.00;;;23.60;99.90;;;;;;5041690;28;20448;-84
2022/06/30 07:51:36;;;;;;;12.87;11.67;;;23.70;99.90;;;;;;5040806;28;20462;-83
2022/06/30 07:54:03;;;;;;;7.83;7.23;;;23.70;99.90;;;;;;5041696;28;20475;-84
2022/06/30 07:56:31;;;;;;;7.20;6.57;;;23.80;99.90;;;;;;5041991;28;20477;-83
2022/06/30 07:58:58;;;;;;;10.67;7.37;;;23.90;99.90;;;;;;5040754;28;20535;-83
2022/06/30 08:01:25;;;;;;;6.77;6.30;;;23.90;99.90;;;;;;5043168;28;20457;-83
2022/06/30 08:03:53;;;;;;;7.57;6.97;;;24.10;99.90;;;;;;5045188;28;20485;-84
2022/06/30 08:06:21;;;;;;;7.80;7.20;;;24.20;99.90;;;;;;5045053;28;20838;-84
2022/06/30 08:08:48;;;;;;;8.00;7.40;;;24.20;99.90;;;;;;5045777;28;20453;-84
2022/06/30 08:11:15;;;;;;;8.63;7.63;;;24.30;99.90;;;;;;5044054;28;20449;-84
2022/06/30 08:13:42;;;;;;;10.00;9.00;;;24.30;99.90;;;;;;5044565;28;20469;-83
2022/06/30 08:16:10;;;;;;;8.43;7.60;;;24.50;99.90;;;;;;5044962;28;20456;-84
2022/06/30 08:18:37;;;;;;;7.60;7.10;;;24.50;99.90;;;;;;5044780;28;20464;-84
2022/06/30 08:21:06;;;;;;;8.73;7.80;;;24.60;99.90;;;;;;5044819;28;20963;-84
2022/06/30 08:23:33;;;;;;;7.30;6.80;;;24.60;99.90;;;;;;5044468;28;20858;-84
2022/06/30 08:26:00;;;;;;;8.67;7.90;;;24.70;99.90;;;;;;5044232;28;20451;-84
2022/06/30 08:28:27;;;;;;;7.20;6.60;;;24.80;99.90;;;;;;5044513;28;20460;-84
2022/06/30 08:30:54;;;;;;;6.77;6.30;;;24.90;99.90;;;;;;5041122;28;20928;-83
2022/06/30 08:33:20;;;;;;;7.93;7.10;;;25.00;99.90;;;;;;5038445;28;20482;-83
2022/06/30 08:35:47;;;;;;;7.93;7.33;;;25.10;99.90;;;;;;5038491;28;20456;-83
2022/06/30 08:38:15;;;;;;;7.80;7.30;;;25.10;99.90;;;;;;5038233;28;20943;-84
2022/06/30 08:43:30;;;;;;;6.73;6.33;;;25.30;99.90;;;;;;5038330;28;20450;-83
2022/06/30 08:45:58;;;;;;;8.77;7.00;;;25.40;99.90;;;;;;5038705;28;20451;-83
2022/06/30 08:48:25;;;;;;;7.20;6.63;;;25.40;99.90;;;;;;5038516;28;20451;-83
2022/06/30 08:50:55;;;;;;;6.87;6.30;;;25.40;99.90;;;;;;5038531;28;20462;-83
2022/06/30 08:53:25;;;;;;;6.63;6.17;;;25.50;99.90;;;;;;5038589;28;20466;-83
2022/06/30 08:55:52;;;;;;;6.30;5.73;;;25.70;99.90;;;;;;5038021;28;20479;-83
2022/06/30 08:58:20;;;;;;;6.80;6.30;;;25.70;99.90;;;;;;5037630;28;20454;-83
2022/06/30 09:00:47;;;;;;;6.20;5.80;;;25.80;99.90;;;;;;5038022;28;20450;-83
2022/06/30 09:03:14;;;;;;;6.60;6.03;;;25.80;99.90;;;;;;5038257;28;20487;-83
2022/06/30 09:05:45;;;;;;;7.00;6.40;;;25.90;99.40;;;;;;5037903;28;21014;-83
2022/06/30 09:08:11;;;;;;;9.70;6.50;;;25.90;99.50;;;;;;5037324;28;20451;-83
2022/06/30 09:10:47;;;;;;;6.17;5.70;;;26.00;99.90;;;;;;5038807;28;20447;-85
2022/06/30 09:13:14;;;;;;;5.57;5.10;;;26.00;99.80;;;;;;5042184;28;20470;-85
2022/06/30 09:15:41;;;;;;;5.80;5.40;;;26.10;97.80;;;;;;5042834;28;20447;-86
2022/06/30 09:18:08;;;;;;;5.80;5.10;;;26.20;98.60;;;;;;5042220;28;20447;-85
2022/06/30 09:20:36;;;;;;;6.13;5.57;;;26.20;98.10;;;;;;5041850;28;20479;-85
2022/06/30 09:23:19;;;;;;;5.27;4.90;;;26.30;97.80;;;;;;5044622;28;20459;-85
2022/06/30 09:25:49;;;;;;;5.33;4.93;;;26.40;99.00;;;;;;5048195;28;20537;-85
2022/06/30 09:28:36;;;;;;;4.93;4.63;;;26.60;96.30;;;;;;5041824;28;20459;-85
2022/06/30 09:31:03;;;;;;;6.13;5.53;;;26.70;96.20;;;;;;5062039;28;20452;-85
2022/06/30 09:33:35;;;;;;;5.97;5.50;;;26.80;96.40;;;;;;5066692;28;20483;-84
2022/06/30 09:36:23;;;;;;;4.83;4.47;;;26.90;95.60;;;;;;5070214;28;20470;-84
2022/06/30 09:39:02;;;;;;;5.33;4.93;;;27.00;95.00;;;;;;5070761;28;20425;-83
2022/06/30 09:41:33;;;;;;;5.00;4.60;;;27.10;93.20;;;;;;5069930;28;20445;-83
2022/06/30 09:44:00;;;;;;;5.00;4.63;;;27.20;94.70;;;;;;5064456;28;20496;-83
2022/06/30 09:46:27;;;;;;;4.40;4.10;;;27.30;95.90;;;;;;5064698;28;20452;-83
2022/06/30 09:48:54;;;;;;;5.00;4.67;;;27.50;94.30;;;;;;5063535;28;20484;-83
2022/06/30 09:51:21;;;;;;;5.47;5.17;;;27.50;93.40;;;;;;5063840;28;20455;-84
2022/06/30 09:54:06;;;;;;;6.10;5.67;;;27.70;93.90;;;;;;5057369;28;20473;-84
2022/06/30 09:56:34;;;;;;;7.93;4.83;;;27.80;93.40;;;;;;5061826;28;20488;-84
2022/06/30 09:59:01;;;;;;;5.53;5.20;;;27.90;93.40;;;;;;5062040;28;20450;-83
2022/06/30 10:01:28;;;;;;;5.67;5.07;;;28.00;92.30;;;;;;5061647;28;20445;-83
2022/06/30 10:03:59;;;;;;;5.43;5.10;;;28.20;93.10;;;;;;5062445;28;20466;-83
2022/06/30 10:06:27;;;;;;;5.57;5.17;;;28.40;92.60;;;;;;5055940;28;20868;-84
2022/06/30 10:08:55;;;;;;;5.00;4.60;;;28.40;92.60;;;;;;5044847;28;20456;-84
2022/06/30 10:11:22;;;;;;;6.00;5.60;;;28.60;90.80;;;;;;5044795;28;20845;-84
2022/06/30 10:13:50;;;;;;;5.73;5.33;;;28.70;90.00;;;;;;5045373;28;20468;-83
2022/06/30 10:16:19;;;;;;;5.30;4.90;;;28.70;90.10;;;;;;5064304;28;20456;-84
2022/06/30 10:18:47;;;;;;;5.37;5.03;;;28.80;90.80;;;;;;5063448;28;20453;-83
2022/06/30 10:21:14;;;;;;;4.87;4.57;;;28.80;90.20;;;;;;5043850;28;20459;-85
2022/06/30 10:23:42;;;;;;;5.90;5.50;;;29.00;91.30;;;;;;5042318;28;20468;-83
2022/06/30 10:27:12;;;;;;;5.40;5.10;;;29.10;90.20;;;;;;5061724;28;20456;-81
2022/06/30 10:29:00;;;;;;;5.50;5.10;;;29.20;88.00;;;;;;5056148;28;20441;-83
2022/06/30 10:31:34;;;;;;;6.87;6.27;;;29.20;88.10;;;;;;5062692;28;20459;-82
2022/06/30 10:34:08;;;;;;;6.40;5.40;;;29.30;90.00;;;;;;5054149;28;20497;-84
2022/06/30 10:36:44;;;;;;;6.17;5.83;;;29.50;90.60;;;;;;5056206;28;20455;-83
2022/06/30 10:39:25;;;;;;;5.47;5.07;;;29.70;90.70;;;;;;5055014;28;20459;-84
2022/06/30 10:46:00;;;;;;;6.00;5.50;;;30.20;89.10;;;;;;5133938;22;20480;-82
2022/06/30 10:48:29;;;;;;;6.90;6.20;;;30.40;86.10;;;;;;5037900;28;20451;-85
2022/06/30 10:51:00;;;;;;;6.73;6.23;;;30.40;86.00;;;;;;5036492;28;20459;-85
2022/06/30 10:53:49;;;;;;;5.90;5.57;;;30.40;85.20;;;;;;5030582;28;20483;-85
2022/06/30 10:56:16;;;;;;;6.17;5.80;;;30.50;85.40;;;;;;5037657;28;20455;-86
2022/06/30 10:59:05;;;;;;;4.93;4.63;;;30.80;84.60;;;;;;5052086;28;20464;-87
2022/06/30 11:01:34;;;;;;;6.23;5.37;;;30.90;80.50;;;;;;5052561;28;20521;-85
2022/06/30 11:04:05;;;;;;;5.93;5.53;;;30.70;84.10;;;;;;5039443;28;20526;-85
2022/06/30 11:07:08;;;;;;;6.30;5.80;;;31.00;83.00;;;;;;5024235;28;20451;-85
2022/06/30 11:10:20;;;;;;;5.10;4.80;;;31.30;81.90;;;;;;5025027;28;20450;-86
2022/06/30 11:13:01;;;;;;;6.20;5.70;;;31.90;81.60;;;;;;5042724;28;20466;-84
2022/06/30 11:16:13;;;;;;;6.53;5.90;;;32.40;77.90;;;;;;5021386;28;20460;-86
2022/06/30 11:21:56;;;;;;;5.67;5.07;;;33.50;76.50;;;;;;5024836;28;20451;-85
2022/06/30 11:24:24;;;;;;;5.70;5.40;;;33.80;68.60;;;;;;5038722;28;20496;-84
2022/06/30 11:29:36;;;;;;;6.87;5.67;;;34.40;67.10;;;;;;5029982;28;20513;-85
2022/06/30 11:32:03;;;;;;;5.87;5.30;;;33.90;66.90;;;;;;5032911;28;20453;-85
2022/06/30 11:34:31;;;;;;;5.90;5.50;;;34.10;69.80;;;;;;5042881;28;20525;-85
2022/06/30 11:36:59;;;;;;;6.73;6.00;;;34.70;68.20;;;;;;5045449;28;20477;-85
2022/06/30 11:39:26;;;;;;;7.93;5.80;;;35.30;66.90;;;;;;5044634;28;20445;-85
2022/06/30 11:41:56;;;;;;;5.40;4.90;;;35.70;64.30;;;;;;5052990;28;20468;-86
2022/06/30 11:44:24;;;;;;;6.13;5.73;;;36.30;63.00;;;;;;5035257;28;20478;-87
2022/06/30 11:46:54;;;;;;;5.60;5.10;;;36.30;58.60;;;;;;5037150;28;20426;-85
2022/06/30 11:49:21;;;;;;;5.53;5.20;;;36.30;57.70;;;;;;5039051;28;20442;-85
2022/06/30 11:51:49;;;;;;;5.70;5.13;;;36.50;56.80;;;;;;5051455;28;20445;-85
2022/06/30 11:54:18;;;;;;;6.13;5.63;;;37.00;55.50;;;;;;5041304;28;20474;-85
2022/06/30 11:56:47;;;;;;;5.83;5.40;;;37.00;54.50;;;;;;5041167;28;20450;-85
2022/06/30 11:59:13;;;;;;;5.90;5.50;;;37.00;55.30;;;;;;5045956;28;20453;-84
2022/06/30 12:01:40;;;;;;;5.60;5.23;;;37.20;53.70;;;;;;5042401;28;20452;-84
2022/06/30 12:04:15;;;;;;;5.47;5.00;;;37.40;53.40;;;;;;5024966;28;20846;-86
2022/06/30 12:06:41;;;;;;;5.60;5.17;;;37.70;54.40;;;;;;5023143;28;20464;-85
2022/06/30 12:09:08;;;;;;;5.20;4.90;;;37.70;50.70;;;;;;5022057;28;20450;-83
2022/06/30 12:11:37;;;;;;;5.33;4.93;;;37.60;51.80;;;;;;5029220;28;20450;-84
2022/06/30 12:14:05;;;;;;;5.43;5.00;;;37.80;52.70;;;;;;5046381;28;20458;-85
2022/06/30 12:16:32;;;;;;;6.67;6.10;;;37.70;51.50;;;;;;5046930;28;20499;-85
2022/06/30 12:18:59;;;;;;;5.53;5.23;;;38.00;51.60;;;;;;5038537;28;20461;-84
2022/06/30 12:21:27;;;;;;;6.00;5.30;;;38.50;53.10;;;;;;5037108;28;20481;-85
2022/06/30 12:23:54;;;;;;;5.10;4.80;;;38.60;47.80;;;;;;5028911;28;20494;-84
2022/06/30 12:26:22;;;;;;;5.30;5.00;;;38.70;48.60;;;;;;5028209;28;20474;-85
2022/06/30 12:28:55;;;;;;;6.03;5.53;;;38.60;49.30;;;;;;5027163;28;20803;-84
2022/06/30 12:31:26;;;;;;;5.80;5.40;;;38.10;48.50;;;;;;5025867;28;20283;-84
2022/06/30 12:33:54;;;;;;;4.90;4.53;;;37.90;50.20;;;;;;5025104;28;20480;-85
2022/06/30 12:36:22;;;;;;;5.73;5.23;;;38.00;50.50;;;;;;5040086;28;20751;-85
2022/06/30 12:38:50;;;;;;;5.43;5.03;;;38.30;49.10;;;;;;5045672;28;20970;-85
2022/06/30 12:41:17;;;;;;;4.67;4.27;;;38.50;48.60;;;;;;5022773;28;20442;-85
2022/06/30 12:43:49;;;;;;;5.07;4.60;;;38.80;45.80;;;;;;5023615;28;20476;-84
2022/06/30 12:46:18;;;;;;;5.80;5.13;;;39.30;48.90;;;;;;5040597;28;21225;-84
2022/06/30 12:48:50;;;;;;;5.03;4.73;;;40.00;50.00;;;;;;5034848;28;20830;-84
2022/06/30 12:51:40;;;;;;;5.50;5.10;;;41.00;49.20;;;;;;5050360;28;20472;-85
2022/06/30 13:00:03;;;;;;;5.60;5.20;;;42.10;43.20;;;;;;5040774;28;20440;-86
2022/06/30 13:02:39;;;;;;;4.50;4.23;;;42.20;41.70;;;;;;5051185;28;20442;-86
2022/06/30 13:38:36;;;;;;;5.17;4.87;;;45.00;34.90;;;;;;5063701;28;20593;-86
2022/06/30 13:41:03;;;;;;;5.10;4.80;;;44.60;35.30;;;;;;5076915;28;20822;-86
2022/06/30 13:43:31;;;;;;;6.17;5.60;;;44.30;34.00;;;;;;5073709;28;20469;-84
2022/06/30 13:45:59;;;;;;;5.70;4.60;;;44.30;34.60;;;;;;5087548;28;21014;-88
2022/06/30 13:51:50;;;;;;;6.17;5.57;;;44.10;34.90;;;;;;5060301;28;20482;-85
2022/06/30 13:54:17;;;;;;;5.53;5.23;;;43.50;35.60;;;;;;5094081;28;20471;-85
2022/06/30 13:56:43;;;;;;;4.80;4.60;;;43.00;35.10;;;;;;5085045;28;20483;-86
2022/06/30 13:59:10;;;;;;;5.53;5.07;;;42.50;36.30;;;;;;5092870;28;20427;-85
2022/06/30 14:01:37;;;;;;;4.83;4.53;;;41.90;37.00;;;;;;5093003;28;20454;-85